createdAt,value
2023-05-18T00:00:24.049Z,100776.59
2023-05-18T00:03:21.596Z,100778.79
2023-05-18T00:06:11.198Z,100783.77
2023-05-18T00:08:59.616Z,100776.57
2023-05-18T00:11:47.585Z,100775.54
2023-05-18T00:14:36.877Z,100778.68
2023-05-18T00:17:25.270Z,100783.80
2023-05-18T00:20:13.848Z,100787.86
2023-05-18T00:23:02.615Z,100786.74
2023-05-18T00:25:50.537Z,100789.48
2023-05-18T00:28:38.511Z,100801.38
2023-05-18T00:31:26.714Z,100813.09
2023-05-18T00:34:17.119Z,100814.74
2023-05-18T00:37:05.408Z,100818.45
2023-05-18T00:39:53.314Z,100823.90
2023-05-18T00:42:41.988Z,100823.55
2023-05-18T00:45:31.113Z,100823.64
2023-05-18T00:48:19.768Z,100824.92
2023-05-18T00:51:08.781Z,100828.02
2023-05-18T00:53:58.200Z,100835.18
2023-05-18T00:56:48.475Z,100835.63
2023-05-18T00:59:37.160Z,100834.67
2023-05-18T01:02:25.089Z,100833.98
2023-05-18T01:05:13.518Z,100834.88
2023-05-18T01:08:03.856Z,100836.67
2023-05-18T01:11:23.236Z,100835.46
2023-05-18T01:14:33.101Z,100833.22
2023-05-18T01:17:29.909Z,100831.01
2023-05-18T01:20:38.142Z,100836.19
2023-05-18T01:23:45.100Z,100841.75
2023-05-18T01:26:41.642Z,100844.16
2023-05-18T01:29:31.190Z,100838.05
2023-05-18T01:32:20.961Z,100839.19
2023-05-18T01:35:09.924Z,100835.74
2023-05-18T01:37:58.876Z,100839.79
2023-05-18T01:41:18.460Z,100839.65
2023-05-18T01:44:18.394Z,100842.33
2023-05-18T01:47:15.124Z,100843.64
2023-05-18T01:50:10.111Z,100847.41
2023-05-18T01:53:06.883Z,100847.17
2023-05-18T01:55:56.308Z,100853.40
2023-05-18T01:58:45.701Z,100852.05
2023-05-18T02:01:34.317Z,100853.13
2023-05-18T02:04:22.415Z,100855.23
2023-05-18T02:07:10.720Z,100855.02
2023-05-18T02:09:59.302Z,100854.64
2023-05-18T02:12:52.716Z,100854.22
2023-05-18T02:15:41.930Z,100857.93
2023-05-18T02:18:30.422Z,100865.95
2023-05-18T02:21:19.297Z,100869.94
2023-05-18T02:24:08.511Z,100870.95
2023-05-18T02:26:56.661Z,100876.55
2023-05-18T02:29:46.192Z,100884.95
2023-05-18T02:32:38.631Z,100886.66
2023-05-18T02:35:28.061Z,100881.31
2023-05-18T02:38:17.386Z,100877.29
2023-05-18T02:41:05.894Z,100880.48
2023-05-18T02:43:54.996Z,100883.41
2023-05-18T02:46:43.081Z,100882.83
2023-05-18T02:49:33.693Z,100876.10
2023-05-18T02:52:21.699Z,100877.98
2023-05-18T02:55:10.159Z,100881.75
2023-05-18T02:58:20.602Z,100890.54
2023-05-18T03:01:21.272Z,100888.23
2023-05-18T03:04:14.173Z,100883.44
2023-05-18T03:07:08.155Z,100889.34
2023-05-18T03:09:56.562Z,100889.98
2023-05-18T03:12:45.573Z,100884.64
2023-05-18T03:15:33.908Z,100882.69
2023-05-18T03:18:22.386Z,100890.17
2023-05-18T03:21:13.828Z,100893.48
2023-05-18T03:24:04.595Z,100903.95
2023-05-18T03:26:55.507Z,100902.59
2023-05-18T03:29:43.714Z,100911.09
2023-05-18T03:32:33.443Z,100913.20
2023-05-18T03:35:21.460Z,100914.95
2023-05-18T03:38:11.307Z,100914.61
2023-05-18T03:41:01.277Z,100916.38
2023-05-18T03:43:51.081Z,100919.91
2023-05-18T03:46:39.579Z,100925.54
2023-05-18T03:49:29.985Z,100924.46
2023-05-18T03:52:22.712Z,100928.24
2023-05-18T03:55:12.296Z,100931.51
2023-05-18T03:58:03.475Z,100931.06
2023-05-18T04:00:53.030Z,100929.16
2023-05-18T04:03:42.955Z,100937.80
2023-05-18T04:06:31.949Z,100939.42
2023-05-18T04:09:21.004Z,100940.83
2023-05-18T04:12:10.204Z,100941.52
2023-05-18T04:14:58.528Z,100941.80
2023-05-18T04:17:51.328Z,100941.42
2023-05-18T04:20:42.638Z,100949.75
2023-05-18T04:23:33.553Z,100951.51
2023-05-18T04:26:22.390Z,100950.36
2023-05-18T04:29:13.666Z,100942.16
2023-05-18T04:32:08.300Z,100949.39
2023-05-18T04:34:58.663Z,100949.94
2023-05-18T04:37:47.729Z,100948.36
2023-05-18T04:40:42.914Z,100949.77
2023-05-18T04:43:33.530Z,100951.02
2023-05-18T04:46:23.334Z,100949.80
2023-05-18T04:49:12.613Z,100956.92
2023-05-18T04:52:02.723Z,100959.21
2023-05-18T04:54:51.502Z,100959.89
2023-05-18T04:57:40.762Z,100963.09
2023-05-18T05:00:31.728Z,100967.98
2023-05-18T05:03:20.348Z,100968.33
2023-05-18T05:06:10.977Z,100973.72
2023-05-18T05:08:59.951Z,100971.55
2023-05-18T05:11:54.390Z,100971.16
2023-05-18T05:14:47.213Z,100971.17
2023-05-18T05:17:37.268Z,100970.09
2023-05-18T05:20:29.310Z,100967.45
2023-05-18T05:23:17.796Z,100967.49
2023-05-18T05:26:07.021Z,100962.33
2023-05-18T05:28:58.850Z,100967.31
2023-05-18T05:31:47.940Z,100964.37
2023-05-18T05:34:37.834Z,100968.87
2023-05-18T05:37:27.513Z,100967.72
2023-05-18T05:40:18.200Z,100969.82
2023-05-18T05:43:07.483Z,100973.90
2023-05-18T05:46:00.490Z,100971.36
2023-05-18T05:48:49.656Z,100973.04
2023-05-18T05:51:38.419Z,100976.52
2023-05-18T05:54:27.339Z,100977.50
2023-05-18T05:57:17.156Z,100976.13
2023-05-18T06:00:10.613Z,100977.52
2023-05-18T06:03:16.958Z,100976.31
2023-05-18T06:06:14.996Z,100981.81
2023-05-18T06:09:04.840Z,100982.15
2023-05-18T06:11:53.319Z,100983.88
2023-05-18T06:14:44.109Z,100983.45
2023-05-18T06:17:32.135Z,100981.67
2023-05-18T06:20:20.627Z,100989.80
2023-05-18T06:23:08.808Z,100993.42
2023-05-18T06:26:10.601Z,100997.27
2023-05-18T06:29:01.441Z,100997.42
2023-05-18T06:32:10.916Z,101000.13
2023-05-18T06:35:05.312Z,101004.27
2023-05-18T06:37:53.463Z,101002.91
2023-05-18T06:40:44.535Z,101004.42
2023-05-18T06:43:33.039Z,101007.83
2023-05-18T06:46:43.126Z,101014.24
2023-05-18T06:49:41.502Z,101013.81
2023-05-18T06:52:30.348Z,101015.48
2023-05-18T06:55:18.672Z,101016.57
2023-05-18T06:58:07.720Z,101014.79
2023-05-18T07:00:56.147Z,101019.56
2023-05-18T07:03:45.703Z,101021.98
2023-05-18T07:06:35.159Z,101023.71
2023-05-18T07:09:24.359Z,101020.98
2023-05-18T07:12:14.030Z,101025.43
2023-05-18T07:15:04.431Z,101024.23
2023-05-18T07:17:53.433Z,101024.12
2023-05-18T07:20:41.531Z,101030.08
2023-05-18T07:23:29.793Z,101031.79
2023-05-18T07:26:17.942Z,101030.66
2023-05-18T07:29:06.456Z,101041.67
2023-05-18T07:31:55.726Z,101039.51
2023-05-18T07:34:46.855Z,101039.98
2023-05-18T07:37:36.020Z,101046.77
2023-05-18T07:40:24.948Z,101045.33
2023-05-18T07:43:16.651Z,101049.36
2023-05-18T07:46:05.122Z,101051.77
2023-05-18T07:48:53.953Z,101053.45
2023-05-18T07:51:42.667Z,101051.07
2023-05-18T07:54:30.858Z,101052.91
2023-05-18T07:57:21.329Z,101056.78
2023-05-18T08:00:11.413Z,101057.00
2023-05-18T08:03:03.029Z,101057.04
2023-05-18T08:05:50.952Z,101056.09
2023-05-18T08:08:39.835Z,101058.67
2023-05-18T08:11:28.163Z,101064.29
2023-05-18T08:14:16.825Z,101063.02
2023-05-18T08:17:06.645Z,101056.02
2023-05-18T08:19:57.095Z,101052.42
2023-05-18T08:22:45.042Z,101053.80
2023-05-18T08:25:33.682Z,101056.79
2023-05-18T08:28:21.961Z,101056.84
2023-05-18T08:31:12.546Z,101054.73
2023-05-18T08:34:00.994Z,101055.04
2023-05-18T08:36:50.049Z,101058.44
2023-05-18T08:39:39.103Z,101059.15
2023-05-18T08:42:48.447Z,101061.52
2023-05-18T08:45:49.429Z,101066.36
2023-05-18T08:48:38.384Z,101061.55
2023-05-18T08:51:29.881Z,101073.39
2023-05-18T08:54:24.209Z,101069.96
2023-05-18T08:57:13.542Z,101072.77
2023-05-18T09:00:05.184Z,101069.53
2023-05-18T09:02:56.776Z,101067.91
2023-05-18T09:05:46.794Z,101064.95
2023-05-18T09:08:36.359Z,101066.91
2023-05-18T09:11:28.352Z,101069.13
2023-05-18T09:14:16.783Z,101070.45
2023-05-18T09:17:05.305Z,101064.86
2023-05-18T09:19:53.538Z,101073.40
2023-05-18T09:22:41.579Z,101071.95
2023-05-18T09:25:35.356Z,101068.03
2023-05-18T09:28:37.228Z,101064.27
2023-05-18T09:31:27.806Z,101070.92
2023-05-18T09:34:19.096Z,101069.15
2023-05-18T09:37:08.669Z,101062.67
2023-05-18T09:40:06.519Z,101064.91
2023-05-18T09:42:56.072Z,101061.43
2023-05-18T09:45:47.222Z,101058.23
2023-05-18T09:48:44.687Z,101057.75
2023-05-18T09:51:39.648Z,101060.21
2023-05-18T09:54:27.839Z,101066.51
2023-05-18T09:57:20.973Z,101061.08
2023-05-18T10:00:13.421Z,101058.73
2023-05-18T10:03:05.585Z,101062.69
2023-05-18T10:05:56.056Z,101063.63
2023-05-18T10:08:45.981Z,101061.55
2023-05-18T10:11:36.540Z,101061.56
2023-05-18T10:14:30.540Z,101068.71
2023-05-18T10:17:22.137Z,101066.92
2023-05-18T10:20:11.084Z,101068.80
2023-05-18T10:23:04.803Z,101069.69
2023-05-18T10:25:54.834Z,101065.98
2023-05-18T10:28:47.615Z,101065.27
2023-05-18T10:31:38.603Z,101066.39
2023-05-18T10:34:27.813Z,101067.92
2023-05-18T10:37:17.600Z,101072.55
2023-05-18T10:40:11.808Z,101070.83
2023-05-18T10:43:03.774Z,101074.76
2023-05-18T10:46:02.901Z,101076.71
2023-05-18T10:48:53.185Z,101074.30
2023-05-18T10:51:46.345Z,101069.65
2023-05-18T10:54:35.635Z,101070.64
2023-05-18T10:57:24.875Z,101074.63
2023-05-18T11:00:13.584Z,101073.77
2023-05-18T11:03:03.702Z,101075.45
2023-05-18T11:06:06.908Z,101067.80
2023-05-18T11:08:55.082Z,101067.98
2023-05-18T11:11:56.086Z,101066.11
2023-05-18T11:14:51.678Z,101070.58
2023-05-18T11:17:39.868Z,101070.06
2023-05-18T11:20:28.093Z,101067.55
2023-05-18T11:23:18.746Z,101072.81
2023-05-18T11:26:16.660Z,101076.34
2023-05-18T11:29:18.635Z,101072.23
2023-05-18T11:32:32.685Z,101071.26
2023-05-18T11:35:24.633Z,101075.27
2023-05-18T11:38:13.321Z,101078.33
2023-05-18T11:41:02.481Z,101082.00
2023-05-18T11:44:21.028Z,101084.14
2023-05-18T11:47:11.863Z,101086.92
2023-05-18T11:50:01.615Z,101083.48
2023-05-18T11:52:53.447Z,101091.06
2023-05-18T11:55:46.759Z,101089.19
2023-05-18T11:58:37.543Z,101091.96
2023-05-18T12:01:26.395Z,101095.10
2023-05-18T12:04:16.076Z,101094.38
2023-05-18T12:07:05.972Z,101097.36
2023-05-18T12:10:05.058Z,101097.80
2023-05-18T12:12:54.485Z,101105.14
2023-05-18T12:15:44.169Z,101112.30
2023-05-18T12:18:35.328Z,101117.05
2023-05-18T12:21:25.098Z,101115.84
2023-05-18T12:24:13.629Z,101116.94
2023-05-18T12:27:07.516Z,101118.73
2023-05-18T12:29:55.972Z,101118.33
2023-05-18T12:32:50.110Z,101117.14
2023-05-18T12:35:39.094Z,101119.17
2023-05-18T12:38:30.386Z,101121.55
2023-05-18T12:41:29.293Z,101124.64
2023-05-18T12:44:17.909Z,101123.05
2023-05-18T12:47:06.604Z,101117.04
2023-05-18T12:50:04.914Z,101122.06
2023-05-18T12:52:54.667Z,101119.84
2023-05-18T12:55:42.765Z,101122.45
2023-05-18T12:58:33.200Z,101121.11
2023-05-18T13:01:22.172Z,101125.38
2023-05-18T13:04:12.440Z,101124.23
2023-05-18T13:07:00.933Z,101124.84
2023-05-18T13:09:49.961Z,101126.08
2023-05-18T13:12:47.455Z,101125.95
2023-05-18T13:15:38.091Z,101132.05
2023-05-18T13:18:28.351Z,101124.56
2023-05-18T13:21:17.031Z,101124.86
2023-05-18T13:24:05.731Z,101121.71
2023-05-18T13:26:53.912Z,101128.44
2023-05-18T13:29:42.133Z,101124.02
2023-05-18T13:32:30.966Z,101129.79
2023-05-18T13:35:21.456Z,101127.95
2023-05-18T13:38:13.495Z,101125.39
2023-05-18T13:41:03.712Z,101123.53
2023-05-18T13:43:51.669Z,101126.27
2023-05-18T13:46:39.943Z,101130.45
2023-05-18T13:49:28.415Z,101137.56
2023-05-18T13:52:17.089Z,101128.02
2023-05-18T13:55:10.636Z,101132.58
2023-05-18T13:58:00.529Z,101132.38
2023-05-18T14:00:49.534Z,101133.48
2023-05-18T14:03:37.966Z,101129.67
2023-05-18T14:06:27.964Z,101125.57
2023-05-18T14:09:16.111Z,101129.15
2023-05-18T14:12:05.976Z,101128.67
2023-05-18T14:14:56.815Z,101132.11
2023-05-18T14:17:46.553Z,101130.66
2023-05-18T14:20:38.889Z,101130.00
2023-05-18T14:23:27.790Z,101129.09
2023-05-18T14:26:16.748Z,101129.25
2023-05-18T14:29:06.013Z,101131.31
2023-05-18T14:31:54.146Z,101134.27
2023-05-18T14:34:43.773Z,101131.82
2023-05-18T14:37:33.157Z,101126.14
2023-05-18T14:40:23.791Z,101127.92
2023-05-18T14:43:12.757Z,101126.02
2023-05-18T14:46:08.655Z,101129.00
2023-05-18T14:48:59.911Z,101128.79
2023-05-18T14:51:48.583Z,101126.35
2023-05-18T14:54:36.921Z,101127.41
2023-05-18T14:57:26.813Z,101132.83
2023-05-18T15:00:17.167Z,101128.96
2023-05-18T15:03:06.211Z,101129.45
2023-05-18T15:05:59.375Z,101121.92
2023-05-18T15:08:49.194Z,101132.38
2023-05-18T15:11:37.664Z,101126.18
2023-05-18T15:14:26.104Z,101125.38
2023-05-18T15:17:15.324Z,101126.23
2023-05-18T15:20:04.613Z,101127.53
2023-05-18T15:22:53.292Z,101127.05
2023-05-18T15:25:41.780Z,101124.56
2023-05-18T15:28:31.052Z,101126.68
2023-05-18T15:31:19.799Z,101124.91
2023-05-18T15:34:08.156Z,101131.79
2023-05-18T15:36:56.576Z,101133.34
2023-05-18T15:39:49.653Z,101130.83
2023-05-18T15:42:38.236Z,101126.65
2023-05-18T15:45:27.465Z,101126.95
2023-05-18T15:48:16.567Z,101126.83
2023-05-18T15:51:05.057Z,101129.98
2023-05-18T15:53:54.232Z,101125.64
2023-05-18T15:56:43.045Z,101123.86
2023-05-18T15:59:31.367Z,101122.69
2023-05-18T16:02:20.438Z,101125.41
2023-05-18T16:05:09.364Z,101127.30
2023-05-18T16:07:59.769Z,101126.91
2023-05-18T16:10:49.223Z,101128.05
2023-05-18T16:13:37.580Z,101133.38
2023-05-18T16:16:28.267Z,101134.62
2023-05-18T16:19:18.263Z,101135.05
2023-05-18T16:22:09.098Z,101134.64
2023-05-18T16:24:59.091Z,101136.63
2023-05-18T16:27:47.627Z,101138.67
2023-05-18T16:30:35.944Z,101140.09
2023-05-18T16:33:25.812Z,101140.30
2023-05-18T16:36:14.650Z,101139.88
2023-05-18T16:39:03.675Z,101141.04
2023-05-18T16:41:51.555Z,101142.07
2023-05-18T16:44:40.661Z,101145.67
2023-05-18T16:47:32.900Z,101147.02
2023-05-18T16:50:22.176Z,101147.58
2023-05-18T16:53:10.159Z,101148.74
2023-05-18T16:55:58.874Z,101154.80
2023-05-18T16:58:52.239Z,101157.05
2023-05-18T17:01:40.834Z,101156.81
2023-05-18T17:04:29.845Z,101160.84
2023-05-18T17:07:18.494Z,101161.14
2023-05-18T17:10:07.608Z,101152.20
2023-05-18T17:12:58.198Z,101156.11
2023-05-18T17:15:46.646Z,101154.63
2023-05-18T17:18:37.538Z,101157.77
2023-05-18T17:21:28.551Z,101160.36
2023-05-18T17:24:18.431Z,101161.71
2023-05-18T17:27:10.716Z,101162.91
2023-05-18T17:30:03.217Z,101170.34
2023-05-18T17:32:51.776Z,101168.17
2023-05-18T17:35:40.490Z,101173.40
2023-05-18T17:38:28.777Z,101173.19
2023-05-18T17:41:17.754Z,101170.27
2023-05-18T17:44:05.697Z,101171.05
2023-05-18T17:46:54.207Z,101174.08
2023-05-18T17:49:44.435Z,101174.13
2023-05-18T17:52:32.787Z,101174.37
2023-05-18T17:55:21.251Z,101177.92
2023-05-18T17:58:09.508Z,101177.58
2023-05-18T18:00:58.036Z,101179.67
2023-05-18T18:03:46.680Z,101178.02
2023-05-18T18:06:36.055Z,101178.01
2023-05-18T18:09:25.177Z,101185.66
2023-05-18T18:12:12.991Z,101186.79
2023-05-18T18:15:01.598Z,101187.73
2023-05-18T18:17:49.996Z,101190.02
2023-05-18T18:20:38.195Z,101192.79
2023-05-18T18:23:28.543Z,101196.13
2023-05-18T18:26:19.791Z,101198.05
2023-05-18T18:29:10.742Z,101194.44
2023-05-18T18:32:04.253Z,101200.47
2023-05-18T18:34:52.592Z,101198.80
2023-05-18T18:37:45.055Z,101199.32
2023-05-18T18:40:34.405Z,101200.35
2023-05-18T18:43:25.285Z,101201.78
2023-05-18T18:46:15.325Z,101205.19
2023-05-18T18:49:03.925Z,101208.84
2023-05-18T18:51:53.826Z,101195.04
2023-05-18T18:54:46.339Z,101209.45
2023-05-18T18:57:35.604Z,101214.11
2023-05-18T19:00:35.580Z,101212.09
2023-05-18T19:03:28.533Z,101218.52
2023-05-18T19:06:20.442Z,101213.37
2023-05-18T19:09:11.603Z,101220.27
2023-05-18T19:12:01.778Z,101220.29
2023-05-18T19:14:52.609Z,101221.85
2023-05-18T19:17:53.987Z,101219.98
2023-05-18T19:20:43.703Z,101221.13
2023-05-18T19:23:34.376Z,101221.21
2023-05-18T19:26:23.438Z,101223.02
2023-05-18T19:29:15.287Z,101225.64
2023-05-18T19:32:04.750Z,101224.10
2023-05-18T19:34:58.741Z,101221.49
2023-05-18T19:37:51.245Z,101217.27
2023-05-18T19:40:39.636Z,101206.36
2023-05-18T19:43:35.084Z,101219.85
2023-05-18T19:46:29.208Z,101218.22
2023-05-18T19:49:19.134Z,101224.69
2023-05-18T19:52:12.951Z,101227.54
2023-05-18T19:55:02.660Z,101224.34
2023-05-18T19:57:53.408Z,101223.13
2023-05-18T20:00:49.835Z,101226.17
2023-05-18T20:03:40.843Z,101229.14
2023-05-18T20:06:35.942Z,101230.59
2023-05-18T20:09:24.337Z,101237.08
2023-05-18T20:12:13.982Z,101236.13
2023-05-18T20:15:12.179Z,101244.11
2023-05-18T20:18:02.089Z,101241.84
2023-05-18T20:20:59.220Z,101242.00
2023-05-18T20:23:48.464Z,101243.67
2023-05-18T20:26:43.440Z,101250.34
2023-05-18T20:29:32.647Z,101251.02
2023-05-18T20:32:25.450Z,101252.74
2023-05-18T20:35:21.188Z,101254.63
2023-05-18T20:39:07.641Z,101257.77
2023-05-18T20:42:00.689Z,101261.61
2023-05-18T20:44:51.883Z,101262.08
2023-05-18T20:47:41.964Z,101266.69
2023-05-18T20:50:31.528Z,101268.44
2023-05-18T20:53:21.033Z,101270.89
2023-05-18T20:56:10.190Z,101270.98
2023-05-18T20:59:03.075Z,101270.69
2023-05-18T21:01:54.264Z,101277.75
2023-05-18T21:04:42.814Z,101281.98
2023-05-18T21:07:33.305Z,101282.08
2023-05-18T21:10:21.919Z,101282.86
2023-05-18T21:13:11.019Z,101280.02
2023-05-18T21:16:00.076Z,101282.86
2023-05-18T21:18:50.692Z,101280.98
2023-05-18T21:21:39.144Z,101286.98
2023-05-18T21:24:27.519Z,101286.29
2023-05-18T21:27:16.240Z,101286.69
2023-05-18T21:30:04.905Z,101278.59
2023-05-18T21:32:53.739Z,101285.78
2023-05-18T21:35:43.138Z,101287.90
2023-05-18T21:38:31.738Z,101289.08
2023-05-18T21:41:22.455Z,101289.31
2023-05-18T21:44:11.133Z,101289.17
2023-05-18T21:47:01.912Z,101293.98
2023-05-18T21:49:54.178Z,101297.28
2023-05-18T21:52:42.426Z,101299.38
2023-05-18T21:55:34.763Z,101301.54
2023-05-18T21:58:24.882Z,101303.73
2023-05-18T22:01:13.255Z,101305.94
2023-05-18T22:04:02.267Z,101301.41
2023-05-18T22:06:54.820Z,101303.21
2023-05-18T22:09:43.116Z,101301.92
2023-05-18T22:12:32.949Z,101303.45
2023-05-18T22:15:22.726Z,101303.16
2023-05-18T22:18:11.115Z,101300.30
2023-05-18T22:20:59.868Z,101299.98
2023-05-18T22:23:48.452Z,101298.30
2023-05-18T22:26:36.436Z,101301.29
2023-05-18T22:29:24.883Z,101301.88
2023-05-18T22:32:12.914Z,101302.35
2023-05-18T22:35:02.230Z,101298.96
2023-05-18T22:37:50.805Z,101300.75
2023-05-18T22:40:39.129Z,101302.12
2023-05-18T22:43:29.109Z,101299.61
2023-05-18T22:46:17.118Z,101298.16
2023-05-18T22:49:06.904Z,101297.84
2023-05-18T22:51:55.866Z,101295.41
2023-05-18T22:54:44.025Z,101295.59
2023-05-18T22:57:33.034Z,101297.52
2023-05-18T23:00:21.288Z,101296.13
2023-05-18T23:03:09.805Z,101293.71
2023-05-18T23:05:57.907Z,101297.65
2023-05-18T23:08:46.402Z,101297.09
2023-05-18T23:11:35.195Z,101293.55
2023-05-18T23:14:24.369Z,101289.65
2023-05-18T23:17:12.723Z,101291.75
2023-05-18T23:20:08.413Z,101286.09
2023-05-18T23:22:57.317Z,101287.66
2023-05-18T23:25:45.782Z,101286.73
2023-05-18T23:28:33.892Z,101289.64
2023-05-18T23:31:22.245Z,101286.53
2023-05-18T23:34:12.484Z,101287.95
2023-05-18T23:37:06.657Z,101289.12
2023-05-18T23:39:56.912Z,101288.89
2023-05-18T23:42:46.939Z,101294.79
2023-05-18T23:45:36.059Z,101297.40
2023-05-18T23:48:24.585Z,101296.98
2023-05-18T23:51:17.787Z,101298.83
2023-05-18T23:54:07.563Z,101294.83
2023-05-18T23:56:56.124Z,101297.11
2023-05-18T23:59:46.682Z,101293.09
